Time;durP1;ratioP1;P1;durP2;ratioP2;P2;SDS_P1;SDS_P2;PMS_P1;PMS_P2;Temp;Humidity;BMP_temperature;BMP_pressure;BME280_temperature;BME280_humidity;BME280_pressure;Samples;Min_cycle;Max_cycle;Signal;HPM_P1;HPM_P2
2022/01/13 00:01:47;;;;;;;104.97;30.60;;;5.90;99.90;;;;;;4734540;30;20060;-67
2022/01/13 00:04:13;;;;;;;111.15;32.05;;;6.00;99.90;;;;;;4740433;30;20096;-67
2022/01/13 00:06:40;;;;;;;101.05;30.25;;;5.90;99.90;;;;;;4743185;30;20056;-67
2022/01/13 00:09:06;;;;;;;106.82;30.40;;;5.90;99.90;;;;;;4728599;30;20160;-67
2022/01/13 00:11:32;;;;;;;104.32;31.85;;;5.90;99.90;;;;;;4756557;30;20049;-67
2022/01/13 00:24:41;;;;;;;110.50;28.48;;;5.90;99.90;;;;;;4853627;29;20099;-67
2022/01/13 00:27:11;;;;;;;116.72;26.52;;;5.90;99.90;;;;;;4836334;29;20543;-67
2022/01/13 00:29:41;;;;;;;109.38;27.30;;;5.90;99.90;;;;;;4836579;29;20058;-66
2022/01/13 00:32:07;;;;;;;98.78;26.27;;;5.80;99.90;;;;;;4836802;29;20060;-67
2022/01/13 00:34:33;;;;;;;;;;;5.80;99.90;;;;;;4853870;29;20053;-66
2022/01/13 00:36:59;;;;;;;118.75;27.80;;;5.80;99.90;;;;;;4836742;29;19958;-67
2022/01/13 00:39:24;;;;;;;110.67;27.83;;;5.80;99.90;;;;;;4836160;29;20067;-67
2022/01/13 00:41:51;;;;;;;101.90;26.05;;;5.80;99.90;;;;;;4853794;29;20053;-67
2022/01/13 00:44:20;;;;;;;105.72;25.75;;;5.80;99.90;;;;;;4853307;29;20059;-67
2022/01/13 00:46:56;;;;;;;98.80;24.35;;;5.80;99.90;;;;;;4853604;29;20128;-67
2022/01/13 00:49:22;;;;;;;105.30;25.07;;;5.70;99.90;;;;;;4811406;29;20065;-67
2022/01/13 00:51:48;;;;;;;96.60;23.75;;;5.70;99.90;;;;;;4853535;29;20129;-67
2022/01/13 00:54:15;;;;;;;98.18;21.95;;;5.70;99.90;;;;;;4835912;29;20046;-67
2022/01/13 00:56:41;;;;;;;107.20;23.88;;;5.70;99.90;;;;;;4853385;29;20121;-67
2022/01/13 00:59:09;;;;;;;95.93;23.75;;;5.70;99.90;;;;;;4852703;29;20092;-67
2022/01/13 01:01:48;;;;;;;100.63;22.83;;;5.70;99.90;;;;;;4851595;29;20078;-67
2022/01/13 01:04:14;;;;;;;118.90;23.88;;;5.70;99.90;;;;;;4835963;29;20057;-67
2022/01/13 01:06:40;;;;;;;;;;;5.60;99.90;;;;;;4851908;29;20140;-67
2022/01/13 01:09:13;;;;;;;104.72;22.38;;;5.60;99.90;;;;;;4852405;29;20519;-67
2022/01/13 01:11:39;;;;;;;135.20;25.35;;;5.60;99.90;;;;;;4836469;29;20076;-67
2022/01/13 01:14:07;;;;;;;109.60;25.55;;;5.60;99.90;;;;;;4828924;29;20043;-67
2022/01/13 01:16:36;;;;;;;127.15;23.83;;;5.60;99.90;;;;;;4834050;29;20062;-67
2022/01/13 01:19:07;;;;;;;100.75;25.27;;;5.70;99.90;;;;;;4852398;29;20050;-67
2022/01/13 01:26:58;;;;;;;121.63;26.40;;;5.60;99.90;;;;;;4835740;29;20098;-66
2022/01/13 01:29:50;;;;;;;111.30;25.55;;;5.60;99.90;;;;;;4851945;29;20053;-67
2022/01/13 01:32:15;;;;;;;129.00;26.65;;;5.60;99.90;;;;;;4834313;29;20069;-67
2022/01/13 01:37:17;;;;;;;138.30;27.25;;;5.60;99.90;;;;;;4835533;29;20054;-67
2022/01/13 01:39:49;;;;;;;109.53;25.10;;;5.60;99.90;;;;;;4851503;29;20110;-67
2022/01/13 01:42:16;;;;;;;117.30;26.42;;;5.60;99.90;;;;;;4851917;29;20110;-67
2022/01/13 01:44:44;;;;;;;102.47;25.92;;;5.50;99.90;;;;;;4852022;29;20056;-67
2022/01/13 01:47:13;;;;;;;110.05;25.05;;;5.50;99.90;;;;;;4835428;29;20058;-67
2022/01/13 01:49:42;;;;;;;130.40;26.95;;;5.50;99.90;;;;;;4850419;29;20083;-67
2022/01/13 01:52:10;;;;;;;119.65;26.58;;;5.50;99.90;;;;;;4851680;29;20130;-67
2022/01/13 01:54:37;;;;;;;105.38;28.48;;;5.50;99.90;;;;;;4835102;29;20086;-67
2022/01/13 01:57:04;;;;;;;104.68;27.90;;;5.50;99.90;;;;;;4834501;29;20085;-66
2022/01/13 01:59:32;;;;;;;112.93;28.23;;;5.50;99.90;;;;;;4851380;29;20121;-66
2022/01/13 02:01:59;;;;;;;117.10;30.80;;;5.50;99.90;;;;;;4835219;29;20054;-67
2022/01/13 02:04:26;;;;;;;;;;;5.50;99.90;;;;;;4835944;29;20042;-66
2022/01/13 02:06:54;;;;;;;107.00;28.00;;;5.50;99.90;;;;;;4831060;29;19956;-67
2022/01/13 02:09:20;;;;;;;110.30;28.20;;;5.50;99.90;;;;;;4838057;29;20053;-67
2022/01/13 02:11:52;;;;;;;111.03;27.70;;;5.60;99.90;;;;;;4835607;29;20128;-67
2022/01/13 02:14:32;;;;;;;106.63;27.58;;;5.60;99.90;;;;;;4832222;29;20065;-67
2022/01/13 02:17:07;;;;;;;119.95;27.88;;;5.60;99.90;;;;;;4851662;29;20073;-67
2022/01/13 02:19:35;;;;;;;114.22;28.60;;;5.60;99.90;;;;;;4834903;29;20062;-67
2022/01/13 02:22:02;;;;;;;111.25;27.08;;;5.60;99.90;;;;;;4851575;29;20050;-67
2022/01/13 02:24:28;;;;;;;109.00;27.90;;;5.60;99.90;;;;;;4851251;29;20474;-67
2022/01/13 02:26:54;;;;;;;112.97;28.67;;;5.50;99.90;;;;;;4849622;29;20054;-66
2022/01/13 02:29:20;;;;;;;;;;;5.60;99.90;;;;;;4851508;29;20175;-67
2022/01/13 02:31:45;;;;;;;110.03;26.52;;;5.50;99.90;;;;;;4851536;29;19924;-67
2022/01/13 02:34:11;;;;;;;95.10;24.27;;;5.50;99.90;;;;;;4834493;29;20061;-67
2022/01/13 02:36:38;;;;;;;113.60;26.93;;;5.50;99.90;;;;;;4851586;29;20428;-67
2022/01/13 02:39:04;;;;;;;107.68;26.55;;;5.50;99.90;;;;;;4850073;29;20359;-67
2022/01/13 02:41:30;;;;;;;108.28;27.42;;;5.60;99.90;;;;;;4851056;29;20054;-66
2022/01/13 02:43:58;;;;;;;108.00;26.52;;;5.60;99.90;;;;;;4834462;29;20121;-68
2022/01/13 02:49:08;;;;;;;97.25;26.35;;;5.60;99.90;;;;;;4851060;29;20088;-67
2022/01/13 02:51:34;;;;;;;110.55;27.27;;;5.60;99.90;;;;;;4834283;29;20049;-67
2022/01/13 02:53:59;;;;;;;112.40;27.38;;;5.60;99.90;;;;;;4851161;29;20069;-67
2022/01/13 02:56:26;;;;;;;108.20;26.15;;;5.60;99.90;;;;;;4850741;29;20057;-67
2022/01/13 02:58:52;;;;;;;101.93;26.88;;;5.60;99.90;;;;;;4850961;29;20037;-67
2022/01/13 03:01:18;;;;;;;102.57;26.33;;;5.70;99.90;;;;;;4849244;29;20475;-67
2022/01/13 03:03:44;;;;;;;101.80;27.38;;;5.70;99.90;;;;;;4834305;29;20045;-67
2022/01/13 03:06:11;;;;;;;;;;;5.70;99.90;;;;;;4834740;29;20549;-68
2022/01/13 03:08:41;;;;;;;109.85;25.10;;;5.70;99.90;;;;;;4850828;29;19947;-67
2022/01/13 03:11:07;;;;;;;93.55;25.52;;;5.70;99.90;;;;;;4834382;29;20050;-66
2022/01/13 03:13:33;;;;;;;98.10;25.30;;;5.70;99.90;;;;;;4849376;29;20103;-67
2022/01/13 03:15:58;;;;;;;86.93;25.60;;;5.70;99.90;;;;;;4828442;29;20065;-67
2022/01/13 03:18:24;;;;;;;83.17;23.43;;;5.70;99.90;;;;;;4817523;29;20123;-67
2022/01/13 03:20:50;;;;;;;101.97;24.97;;;5.70;99.90;;;;;;4848410;29;20082;-67
2022/01/13 03:23:18;;;;;;;87.60;24.30;;;5.70;99.90;;;;;;4834071;29;20094;-66
2022/01/13 03:25:45;;;;;;;83.40;24.98;;;5.70;99.90;;;;;;4833570;29;20054;-67
2022/01/13 03:28:16;;;;;;;103.40;24.88;;;5.70;99.90;;;;;;4850380;29;20118;-67
2022/01/13 03:30:43;;;;;;;81.35;24.10;;;5.70;99.90;;;;;;4833519;29;20050;-67
2022/01/13 03:33:09;;;;;;;90.53;24.25;;;5.80;99.90;;;;;;4833812;29;20124;-67
2022/01/13 03:35:38;;;;;;;100.65;24.65;;;5.80;99.90;;;;;;4850724;29;20049;-67
2022/01/13 03:38:05;;;;;;;102.25;26.50;;;5.80;99.90;;;;;;4833597;29;20069;-67
2022/01/13 03:40:31;;;;;;;99.97;24.13;;;5.80;99.90;;;;;;4835315;29;20106;-66
2022/01/13 03:42:58;;;;;;;;;;;5.70;99.90;;;;;;4837432;29;20102;-66
2022/01/13 03:45:23;;;;;;;100.68;24.80;;;5.70;99.90;;;;;;4854132;29;19932;-67
2022/01/13 03:47:49;;;;;;;119.53;27.63;;;5.70;99.90;;;;;;4852382;29;20054;-67
2022/01/13 03:50:15;;;;;;;130.03;27.23;;;5.70;99.90;;;;;;4853918;29;20061;-68
2022/01/13 03:53:01;;;;;;;122.30;27.13;;;5.70;99.90;;;;;;4853800;29;20081;-67
2022/01/13 03:55:37;;;;;;;112.45;26.33;;;5.70;99.90;;;;;;4837084;29;20409;-67
2022/01/13 03:58:25;;;;;;;106.82;25.45;;;5.70;99.90;;;;;;4837142;29;20062;-67
2022/01/13 04:01:05;;;;;;;;;;;5.70;99.90;;;;;;4830649;29;20050;-67
2022/01/13 04:03:31;;;;;;;101.32;24.35;;;5.60;99.90;;;;;;4837332;29;19925;-67
2022/01/13 04:06:07;;;;;;;102.07;24.67;;;5.70;99.90;;;;;;4854014;29;20083;-67
2022/01/13 04:08:32;;;;;;;102.40;24.40;;;5.60;99.90;;;;;;4836573;29;20145;-67
2022/01/13 04:11:04;;;;;;;128.23;27.38;;;5.60;99.90;;;;;;4853267;29;20088;-67
2022/01/13 04:13:57;;;;;;;99.25;25.58;;;5.60;99.90;;;;;;4853892;29;20073;-67
2022/01/13 04:16:27;;;;;;;109.90;26.50;;;5.60;99.90;;;;;;4844289;29;20053;-67
2022/01/13 04:18:54;;;;;;;98.30;25.65;;;5.60;99.90;;;;;;4853786;29;20454;-66
2022/01/13 04:21:21;;;;;;;119.70;26.15;;;5.60;99.90;;;;;;4836422;29;20050;-68
2022/01/13 04:23:47;;;;;;;;;;;5.60;99.90;;;;;;4853862;29;20046;-67
2022/01/13 04:26:17;;;;;;;125.28;26.65;;;5.60;99.90;;;;;;4853514;29;19925;-67
2022/01/13 04:28:42;;;;;;;110.38;26.20;;;5.60;99.90;;;;;;4853489;29;20064;-67
2022/01/13 04:31:08;;;;;;;113.60;27.50;;;5.60;99.90;;;;;;4836003;29;20418;-67
2022/01/13 04:33:37;;;;;;;126.60;27.47;;;5.60;99.90;;;;;;4836639;29;20303;-67
2022/01/13 04:36:05;;;;;;;122.40;26.48;;;5.60;99.90;;;;;;4836525;29;20058;-67
2022/01/13 04:38:32;;;;;;;131.23;28.70;;;5.60;99.90;;;;;;4836427;29;20061;-67
2022/01/13 04:41:00;;;;;;;174.25;29.65;;;5.60;99.90;;;;;;4835722;29;20064;-67
2022/01/13 04:43:29;;;;;;;126.65;27.45;;;5.60;99.90;;;;;;4836678;29;20085;-67
2022/01/13 04:45:56;;;;;;;138.25;28.10;;;5.60;99.90;;;;;;4836291;29;20050;-68
2022/01/13 04:48:21;;;;;;;139.60;27.73;;;5.60;99.90;;;;;;4836330;29;20048;-67
2022/01/13 04:50:47;;;;;;;153.70;27.83;;;5.60;99.90;;;;;;4836718;29;20136;-66
2022/01/13 04:53:13;;;;;;;138.50;27.67;;;5.60;99.90;;;;;;4833859;29;20046;-67
2022/01/13 04:55:39;;;;;;;;;;;5.60;99.90;;;;;;4836765;29;20062;-67
2022/01/13 04:58:06;;;;;;;123.85;27.15;;;5.60;99.90;;;;;;4836446;29;19924;-67
2022/01/13 05:00:34;;;;;;;153.68;28.95;;;5.60;99.90;;;;;;4836142;29;20050;-67
2022/01/13 05:03:00;;;;;;;139.55;28.80;;;5.60;99.90;;;;;;4852286;29;20046;-67
2022/01/13 05:05:26;;;;;;;133.90;26.13;;;5.60;99.90;;;;;;4836352;29;20046;-67
2022/01/13 05:07:53;;;;;;;154.18;27.95;;;5.60;99.90;;;;;;4852972;29;20065;-67
2022/01/13 05:10:19;;;;;;;155.13;29.17;;;5.60;99.90;;;;;;4852906;29;20060;-67
2022/01/13 05:12:47;;;;;;;158.95;27.38;;;5.60;99.90;;;;;;4820688;29;20049;-67
2022/01/13 05:15:19;;;;;;;120.13;27.90;;;5.60;99.90;;;;;;4852750;29;20050;-67
2022/01/13 05:20:20;;;;;;;138.25;29.55;;;5.60;99.90;;;;;;4852977;29;20066;-67
2022/01/13 05:22:46;;;;;;;151.60;29.70;;;5.60;99.90;;;;;;4835419;29;20098;-67
2022/01/13 05:25:12;;;;;;;156.18;28.75;;;5.60;99.90;;;;;;4835249;29;20128;-67
2022/01/13 05:27:38;;;;;;;147.32;27.17;;;5.60;99.90;;;;;;4852667;29;20433;-67
2022/01/13 05:30:05;;;;;;;156.18;29.65;;;5.60;99.90;;;;;;4852218;29;20074;-67
2022/01/13 05:32:31;;;;;;;205.68;31.02;;;5.60;99.90;;;;;;4852139;29;20083;-67
2022/01/13 05:34:57;;;;;;;201.80;31.17;;;5.60;99.90;;;;;;4834820;29;20062;-67
2022/01/13 05:37:23;;;;;;;162.68;29.00;;;5.60;99.90;;;;;;4820555;29;20303;-67
2022/01/13 05:39:48;;;;;;;159.93;29.37;;;5.60;99.90;;;;;;4851984;29;20222;-67
2022/01/13 05:42:14;;;;;;;131.35;26.13;;;5.60;99.90;;;;;;4852367;29;20056;-67
2022/01/13 05:44:40;;;;;;;160.37;28.20;;;5.60;99.90;;;;;;4835265;29;20058;-67
2022/01/13 05:47:08;;;;;;;175.53;27.93;;;5.60;99.90;;;;;;4833937;29;20053;-67
2022/01/13 05:49:33;;;;;;;183.73;27.20;;;5.60;99.90;;;;;;4835038;29;20058;-67
2022/01/13 05:51:59;;;;;;;195.32;31.60;;;5.60;99.90;;;;;;4852299;29;20050;-68
2022/01/13 05:54:25;;;;;;;139.63;27.93;;;5.60;99.90;;;;;;4851631;29;20050;-67
2022/01/13 05:56:50;;;;;;;197.67;31.67;;;5.60;99.90;;;;;;4850354;29;20042;-67
2022/01/13 05:59:16;;;;;;;178.10;29.63;;;5.60;99.90;;;;;;4835601;29;20050;-67
2022/01/13 06:01:42;;;;;;;178.03;29.87;;;5.60;99.90;;;;;;4834800;29;20661;-67
2022/01/13 06:04:08;;;;;;;208.38;30.40;;;5.70;99.90;;;;;;4851351;29;20462;-67
2022/01/13 06:06:34;;;;;;;227.80;32.07;;;5.60;99.90;;;;;;4851406;29;20141;-67
2022/01/13 06:08:59;;;;;;;177.90;29.63;;;5.70;99.90;;;;;;4835186;29;20050;-67
2022/01/13 06:11:27;;;;;;;208.30;31.77;;;5.70;99.90;;;;;;4851659;29;20046;-67
2022/01/13 06:13:52;;;;;;;193.23;31.23;;;5.70;99.90;;;;;;4851716;29;20045;-66
2022/01/13 06:16:18;;;;;;;187.00;33.10;;;5.70;99.90;;;;;;4851255;29;20221;-67
2022/01/13 06:18:44;;;;;;;163.83;30.73;;;5.70;99.90;;;;;;4849905;29;20050;-67
2022/01/13 06:21:10;;;;;;;149.98;31.30;;;5.70;99.90;;;;;;4851592;29;20074;-67
2022/01/13 06:23:35;;;;;;;159.80;31.23;;;5.80;99.90;;;;;;4851114;29;20068;-67
2022/01/13 06:26:03;;;;;;;175.87;33.10;;;5.80;99.90;;;;;;4851109;29;20080;-67
2022/01/13 06:28:29;;;;;;;168.32;31.95;;;5.80;99.90;;;;;;4834369;29;20058;-67
2022/01/13 06:30:55;;;;;;;172.27;32.30;;;5.80;99.90;;;;;;4834412;29;20062;-67
2022/01/13 06:33:20;;;;;;;174.93;32.67;;;5.80;99.90;;;;;;4819189;29;20123;-67
2022/01/13 06:35:46;;;;;;;166.70;32.53;;;5.90;99.90;;;;;;4838947;29;20378;-67
2022/01/13 06:38:12;;;;;;;161.83;32.33;;;5.90;99.90;;;;;;4834776;29;20362;-67
2022/01/13 06:40:38;;;;;;;155.10;31.95;;;5.90;99.90;;;;;;4851179;29;20045;-67
2022/01/13 06:43:03;;;;;;;169.63;34.20;;;5.90;99.90;;;;;;4834008;29;20439;-67
2022/01/13 06:45:29;;;;;;;136.90;32.20;;;5.90;99.90;;;;;;4850919;29;20295;-67
2022/01/13 06:47:55;;;;;;;163.18;33.55;;;5.90;99.90;;;;;;4834066;29;20379;-67
2022/01/13 06:50:21;;;;;;;160.63;31.55;;;5.90;99.90;;;;;;4834742;29;20061;-67
2022/01/13 06:52:47;;;;;;;172.03;36.50;;;6.00;99.90;;;;;;4850110;29;20050;-67
2022/01/13 06:55:14;;;;;;;156.57;34.25;;;6.00;99.90;;;;;;4851033;29;20049;-67
2022/01/13 06:57:39;;;;;;;;;;;6.00;99.90;;;;;;4834495;29;20049;-67
2022/01/13 07:00:06;;;;;;;153.07;32.08;;;6.00;99.90;;;;;;4851267;29;19930;-67
2022/01/13 07:02:33;;;;;;;151.32;34.60;;;6.00;99.90;;;;;;4850671;29;20049;-67
2022/01/13 07:04:59;;;;;;;155.85;34.08;;;6.00;99.90;;;;;;4830871;29;20213;-67
2022/01/13 07:07:34;;;;;;;160.27;35.60;;;6.10;99.90;;;;;;4831260;29;20186;-67
2022/01/13 07:10:00;;;;;;;167.30;34.00;;;6.10;99.90;;;;;;4850937;29;20066;-67
2022/01/13 07:12:26;;;;;;;182.30;35.10;;;6.10;99.90;;;;;;4834299;29;20056;-67
2022/01/13 07:14:51;;;;;;;158.60;35.87;;;6.10;99.90;;;;;;4833292;29;20050;-67
2022/01/13 07:17:17;;;;;;;151.50;33.93;;;6.10;99.90;;;;;;4829139;29;20050;-67
2022/01/13 07:19:45;;;;;;;199.97;37.43;;;6.10;99.90;;;;;;4801146;29;20102;-67
2022/01/13 07:22:11;;;;;;;200.18;36.20;;;6.10;99.90;;;;;;4823294;29;20048;-67
2022/01/13 07:24:37;;;;;;;197.63;36.28;;;6.10;99.90;;;;;;4850320;29;20483;-67
2022/01/13 07:27:03;;;;;;;174.77;36.87;;;6.10;99.90;;;;;;4833947;29;20061;-67
2022/01/13 07:29:29;;;;;;;164.55;35.88;;;6.10;99.90;;;;;;4849869;29;20303;-67
2022/01/13 07:31:54;;;;;;;152.63;35.50;;;6.10;99.90;;;;;;4850156;29;20110;-70
2022/01/13 07:34:20;;;;;;;171.20;35.90;;;6.20;99.90;;;;;;4850441;29;20046;-66
2022/01/13 07:36:46;;;;;;;168.17;35.83;;;6.20;99.90;;;;;;4849775;29;20106;-65
2022/01/13 07:39:11;;;;;;;160.47;36.23;;;6.20;99.90;;;;;;4833488;29;20050;-66
2022/01/13 07:41:42;;;;;;;185.27;38.37;;;6.20;99.90;;;;;;4850214;29;20042;-70
2022/01/13 07:44:10;;;;;;;174.85;35.42;;;6.20;99.90;;;;;;4848673;29;20066;-66
2022/01/13 07:46:36;;;;;;;171.50;37.80;;;6.20;99.90;;;;;;4832885;29;20062;-67
2022/01/13 07:49:02;;;;;;;195.85;37.10;;;6.20;99.90;;;;;;4849630;29;20049;-67
2022/01/13 07:51:29;;;;;;;184.73;36.13;;;6.20;99.90;;;;;;4833655;29;20122;-67
2022/01/13 07:53:56;;;;;;;169.77;36.05;;;6.20;99.90;;;;;;4832557;29;20050;-67
2022/01/13 07:56:22;;;;;;;163.63;36.13;;;6.20;99.90;;;;;;4833991;29;20074;-68
2022/01/13 07:58:48;;;;;;;171.45;36.85;;;6.20;99.90;;;;;;4850648;29;20064;-67
2022/01/13 08:01:13;;;;;;;175.30;35.70;;;6.20;99.90;;;;;;4850627;29;20061;-67
2022/01/13 08:03:39;;;;;;;191.37;37.23;;;6.20;99.90;;;;;;4850055;29;20045;-65
2022/01/13 08:06:05;;;;;;;147.23;34.27;;;6.20;99.90;;;;;;4833400;29;20070;-65
2022/01/13 08:08:35;;;;;;;140.93;33.72;;;6.20;99.90;;;;;;4833751;29;20299;-66
2022/01/13 08:11:03;;;;;;;177.57;36.90;;;6.20;99.90;;;;;;4834006;29;20113;-67
2022/01/13 08:13:29;;;;;;;178.93;39.78;;;6.20;99.90;;;;;;4849237;29;20046;-68
2022/01/13 08:15:55;;;;;;;163.23;36.23;;;6.30;99.90;;;;;;4830021;29;20062;-64
2022/01/13 08:21:05;;;;;;;174.00;38.80;;;6.30;99.90;;;;;;4850324;29;20401;-65
2022/01/13 08:23:31;;;;;;;155.53;36.87;;;6.30;99.90;;;;;;4833287;29;20054;-64
2022/01/13 08:25:57;;;;;;;144.57;35.90;;;6.30;99.90;;;;;;4850237;29;20295;-65
2022/01/13 08:28:23;;;;;;;157.68;36.97;;;6.30;99.90;;;;;;4838761;29;20135;-65
2022/01/13 08:30:49;;;;;;;144.50;36.35;;;6.40;99.90;;;;;;4853471;29;20372;-64
2022/01/13 08:33:15;;;;;;;124.47;34.50;;;6.40;99.90;;;;;;4853580;29;20058;-64
2022/01/13 08:35:43;;;;;;;154.52;37.75;;;6.40;99.90;;;;;;4853370;29;20089;-64
2022/01/13 08:38:19;;;;;;;139.35;35.28;;;6.40;99.90;;;;;;4853018;29;20194;-64
2022/01/13 08:40:47;;;;;;;128.88;34.90;;;6.40;99.90;;;;;;4853479;29;20104;-64
2022/01/13 08:43:13;;;;;;;144.65;36.90;;;6.40;99.90;;;;;;4836524;29;20101;-64
2022/01/13 08:45:39;;;;;;;136.57;36.78;;;6.40;99.90;;;;;;4853466;29;20058;-64
2022/01/13 08:48:05;;;;;;;111.50;35.08;;;6.40;99.90;;;;;;4850402;29;20492;-64
2022/01/13 08:50:31;;;;;;;121.00;35.45;;;6.40;99.90;;;;;;4855953;29;20050;-64
2022/01/13 08:52:56;;;;;;;120.50;35.22;;;6.40;99.90;;;;;;4841449;29;20044;-64
2022/01/13 08:55:23;;;;;;;110.57;33.33;;;6.40;99.90;;;;;;4844446;29;20069;-64
2022/01/13 08:57:48;;;;;;;104.97;33.15;;;6.40;99.90;;;;;;4844295;29;20139;-64
2022/01/13 09:00:14;;;;;;;119.80;32.43;;;6.40;99.90;;;;;;4852894;29;20136;-69
2022/01/13 09:02:42;;;;;;;115.55;33.72;;;6.40;99.90;;;;;;4836429;29;20046;-69
2022/01/13 09:05:07;;;;;;;114.18;33.17;;;6.40;99.90;;;;;;4836066;29;20066;-78
2022/01/13 09:07:33;;;;;;;96.93;33.47;;;6.40;99.90;;;;;;4852539;29;20053;-66
2022/01/13 09:09:59;;;;;;;116.87;34.53;;;6.40;99.90;;;;;;4837108;29;20057;-66
2022/01/13 09:12:25;;;;;;;117.20;33.23;;;6.40;99.90;;;;;;4851632;29;20069;-66
2022/01/13 09:14:57;;;;;;;108.20;34.20;;;6.40;99.90;;;;;;4852432;29;20046;-65
2022/01/13 09:17:24;;;;;;;106.50;32.53;;;6.50;99.90;;;;;;4852829;29;20451;-66
2022/01/13 09:19:51;;;;;;;116.13;32.67;;;6.40;99.90;;;;;;4832597;29;20058;-65
2022/01/13 09:22:18;;;;;;;111.95;32.78;;;6.50;99.90;;;;;;4852857;29;20066;-65
2022/01/13 09:24:44;;;;;;;124.35;32.92;;;6.40;99.90;;;;;;4851406;29;20457;-66
2022/01/13 09:27:09;;;;;;;115.25;34.35;;;6.50;99.90;;;;;;4852072;29;20049;-65
2022/01/13 09:29:35;;;;;;;115.65;33.65;;;6.40;99.90;;;;;;4835583;29;20050;-66
2022/01/13 09:32:02;;;;;;;120.75;31.38;;;6.40;99.90;;;;;;4852259;29;20412;-67
2022/01/13 09:34:28;;;;;;;116.07;32.90;;;6.50;99.90;;;;;;4835573;29;20058;-67
2022/01/13 09:36:53;;;;;;;124.78;34.05;;;6.40;99.90;;;;;;4835097;29;20046;-66
2022/01/13 09:39:19;;;;;;;133.63;31.50;;;6.40;99.90;;;;;;4834730;29;20478;-66
2022/01/13 09:41:46;;;;;;;106.10;31.70;;;6.50;99.90;;;;;;4835580;29;20302;-66
2022/01/13 09:44:15;;;;;;;128.32;33.58;;;6.40;99.90;;;;;;4835572;29;20116;-66
2022/01/13 09:46:41;;;;;;;116.80;32.55;;;6.40;99.90;;;;;;4834584;29;20064;-67
2022/01/13 09:49:08;;;;;;;123.68;34.10;;;6.50;99.90;;;;;;4851456;29;20141;-68
2022/01/13 09:51:36;;;;;;;104.15;32.67;;;6.50;99.90;;;;;;4817304;29;20125;-70
2022/01/13 09:54:03;;;;;;;101.50;31.73;;;6.40;99.90;;;;;;4823586;29;20378;-75
2022/01/13 09:56:29;;;;;;;89.03;30.23;;;6.50;99.90;;;;;;4851824;29;20066;-76
2022/01/13 09:58:55;;;;;;;99.93;31.20;;;6.50;99.90;;;;;;4816002;29;20117;-73
2022/01/13 10:01:21;;;;;;;96.07;30.92;;;6.50;99.90;;;;;;4836563;29;20682;-73
2022/01/13 10:03:46;;;;;;;113.73;32.40;;;6.50;99.90;;;;;;4835571;29;20178;-70
2022/01/13 10:06:20;;;;;;;89.68;30.23;;;6.50;99.90;;;;;;4850023;29;20310;-73
2022/01/13 10:08:52;;;;;;;98.32;32.85;;;6.50;99.90;;;;;;4830223;29;20052;-71
2022/01/13 10:11:40;;;;;;;98.97;32.80;;;6.50;99.90;;;;;;4851922;29;20054;-72
2022/01/13 10:16:23;;;;;;;90.45;31.17;;;6.60;99.90;;;;;;4835630;29;20422;-72
2022/01/13 10:17:05;;;;;;;88.97;31.10;;;6.50;99.90;;;;;;4851213;29;20054;-72
2022/01/13 10:19:37;;;;;;;87.43;30.23;;;6.60;99.90;;;;;;4816631;29;20066;-67
2022/01/13 10:22:08;;;;;;;81.80;28.17;;;6.60;99.90;;;;;;4831168;29;20053;-68
2022/01/13 10:24:39;;;;;;;78.07;30.85;;;6.60;99.90;;;;;;4834871;29;20088;-71
2022/01/13 10:27:09;;;;;;;72.20;29.42;;;6.70;99.90;;;;;;4841700;29;20056;-70
2022/01/13 10:29:56;;;;;;;85.88;31.20;;;6.70;99.90;;;;;;4818193;29;20134;-66
2022/01/13 10:32:23;;;;;;;83.60;29.63;;;6.70;99.90;;;;;;4834942;29;20050;-70
2022/01/13 10:34:58;;;;;;;82.75;29.80;;;6.70;99.90;;;;;;4849664;29;20064;-70
2022/01/13 10:37:36;;;;;;;80.25;31.25;;;6.70;99.90;;;;;;4834645;29;20109;-71
2022/01/13 10:40:20;;;;;;;73.60;29.70;;;6.70;99.90;;;;;;4834519;29;20069;-68
2022/01/13 10:45:26;;;;;;;85.13;30.92;;;6.70;99.90;;;;;;4851264;29;20065;-70
2022/01/13 10:48:16;;;;;;;88.15;33.03;;;6.70;99.90;;;;;;4834320;29;20054;-72
2022/01/13 10:51:04;;;;;;;94.85;32.88;;;6.70;99.90;;;;;;4787059;30;20056;-74
2022/01/13 10:53:37;;;;;;;;;;;6.70;99.90;;;;;;4768021;30;20084;-72
2022/01/13 10:56:06;;;;;;;96.35;32.40;;;6.70;99.90;;;;;;4794131;29;19951;-73
2022/01/13 10:58:35;;;;;;;92.80;31.70;;;6.70;99.90;;;;;;4764371;30;20051;-73
2022/01/13 11:01:01;;;;;;;86.97;30.65;;;6.70;99.90;;;;;;4778089;30;20075;-73
2022/01/13 11:03:28;;;;;;;88.13;31.02;;;6.70;99.90;;;;;;4779294;30;20120;-72
2022/01/13 11:06:02;;;;;;;85.30;30.25;;;6.70;99.90;;;;;;4793756;29;20096;-71
2022/01/13 11:08:32;;;;;;;74.20;31.83;;;6.70;99.90;;;;;;4779138;30;20063;-72
2022/01/13 11:11:02;;;;;;;78.45;31.15;;;6.70;99.90;;;;;;4793716;30;20079;-72
2022/01/13 11:13:30;;;;;;;72.53;30.80;;;6.70;99.90;;;;;;4772223;30;20095;-72
2022/01/13 11:15:57;;;;;;;78.00;31.85;;;6.80;99.90;;;;;;4793947;30;20492;-71
2022/01/13 11:18:28;;;;;;;79.45;32.33;;;6.80;99.90;;;;;;4777253;30;20512;-78
2022/01/13 11:20:55;;;;;;;77.45;32.13;;;6.80;99.90;;;;;;4774414;30;20064;-71
2022/01/13 11:23:21;;;;;;;70.65;31.25;;;6.80;99.90;;;;;;4781479;30;20051;-71
2022/01/13 11:25:50;;;;;;;84.35;30.85;;;6.80;99.90;;;;;;4779064;30;20066;-73
2022/01/13 11:28:16;;;;;;;70.63;31.35;;;6.80;99.90;;;;;;4817530;29;20082;-71
2022/01/13 11:30:42;;;;;;;76.80;32.03;;;6.80;99.90;;;;;;4830920;29;20062;-70
2022/01/13 11:33:08;;;;;;;74.35;31.65;;;6.90;99.90;;;;;;4831222;29;20062;-70
2022/01/13 11:35:44;;;;;;;72.95;30.95;;;6.90;99.90;;;;;;4832147;29;20076;-71
2022/01/13 11:38:11;;;;;;;79.97;30.55;;;6.90;99.90;;;;;;4830543;29;20162;-73
2022/01/13 11:40:42;;;;;;;78.00;33.20;;;6.90;99.90;;;;;;4831338;29;20073;-72
2022/01/13 11:43:23;;;;;;;75.07;31.58;;;7.00;99.90;;;;;;4832498;29;20050;-73
2022/01/13 11:45:49;;;;;;;82.82;32.33;;;7.00;99.90;;;;;;4832311;29;20121;-74
2022/01/13 11:48:27;;;;;;;76.88;33.00;;;7.00;99.90;;;;;;4832309;29;20104;-73
2022/01/13 11:51:15;;;;;;;77.32;32.33;;;7.00;99.90;;;;;;4845922;29;20065;-67
2022/01/13 11:54:02;;;;;;;80.82;33.63;;;7.00;99.90;;;;;;4825739;29;20122;-65
2022/01/13 11:56:28;;;;;;;60.67;28.73;;;7.00;99.90;;;;;;4818309;29;20096;-70
2022/01/13 11:58:57;;;;;;;68.05;30.75;;;7.00;99.90;;;;;;4832019;29;20050;-69
2022/01/13 12:01:31;;;;;;;77.38;30.80;;;7.00;99.90;;;;;;4833509;29;20054;-69
2022/01/13 12:04:04;;;;;;;63.33;30.10;;;7.00;99.90;;;;;;4834133;29;20303;-69
2022/01/13 12:06:45;;;;;;;66.70;29.45;;;7.00;99.90;;;;;;4829844;29;20181;-69
2022/01/13 12:09:32;;;;;;;59.58;29.73;;;7.00;99.90;;;;;;4829781;29;20058;-69
2022/01/13 12:11:59;;;;;;;65.47;29.20;;;7.00;99.90;;;;;;4835666;29;20061;-70
2022/01/13 12:14:24;;;;;;;71.80;30.75;;;7.00;99.90;;;;;;4833679;29;20077;-68
2022/01/13 12:17:01;;;;;;;53.38;28.38;;;7.10;99.90;;;;;;4835237;29;20074;-69
2022/01/13 12:19:37;;;;;;;59.88;29.38;;;7.10;99.90;;;;;;4825312;29;20043;-70
2022/01/13 12:22:10;;;;;;;53.03;27.48;;;7.10;99.90;;;;;;4828026;29;20094;-69
2022/01/13 12:24:56;;;;;;;54.58;28.38;;;7.10;99.90;;;;;;4833727;29;20058;-65
2022/01/13 12:27:46;;;;;;;57.72;29.13;;;7.10;99.90;;;;;;4831517;29;20570;-70
2022/01/13 12:30:30;;;;;;;49.90;27.90;;;7.10;99.90;;;;;;4833026;29;20063;-72
2022/01/13 12:33:00;;;;;;;45.28;25.13;;;7.10;99.90;;;;;;4818980;29;20062;-72
2022/01/13 12:35:38;;;;;;;48.20;26.90;;;7.10;99.90;;;;;;4834846;29;20093;-71
2022/01/13 12:38:06;;;;;;;49.38;26.27;;;7.20;99.90;;;;;;4853281;29;20062;-71
2022/01/13 12:40:44;;;;;;;49.08;26.45;;;7.20;99.90;;;;;;4835315;29;20058;-70
2022/01/13 12:43:22;;;;;;;49.38;25.33;;;7.20;99.90;;;;;;4853524;29;20066;-67
2022/01/13 12:45:49;;;;;;;63.10;29.42;;;7.20;99.90;;;;;;4836706;29;20102;-69
2022/01/13 12:48:15;;;;;;;53.53;28.67;;;7.30;99.90;;;;;;4836137;29;20113;-76
2022/01/13 12:50:42;;;;;;;55.65;26.15;;;7.30;99.90;;;;;;4852527;29;20046;-78
2022/01/13 12:53:20;;;;;;;56.30;25.38;;;7.30;99.90;;;;;;4836202;29;20081;-69
2022/01/13 12:56:02;;;;;;;47.45;26.27;;;7.40;99.90;;;;;;4853066;29;20045;-69
2022/01/13 12:58:49;;;;;;;45.03;26.73;;;7.40;99.90;;;;;;4827141;29;20176;-74
2022/01/13 13:01:18;;;;;;;51.78;25.58;;;7.40;99.90;;;;;;4823397;29;20105;-72
2022/01/13 13:03:58;;;;;;;48.95;26.25;;;7.40;99.90;;;;;;4852959;29;20034;-70
2022/01/13 13:06:24;;;;;;;53.83;27.73;;;7.50;99.90;;;;;;4817855;29;20042;-70
2022/01/13 13:08:49;;;;;;;50.70;26.45;;;7.50;99.90;;;;;;4839675;29;20056;-71
2022/01/13 13:11:15;;;;;;;52.23;26.43;;;7.50;99.90;;;;;;4852723;29;20071;-72